createdAt,value
2023-03-06T16:12:13.518Z,3.30
2023-03-06T16:15:28.920Z,2.80
2023-03-06T16:18:31.518Z,2.70
2023-03-06T16:21:33.202Z,2.60
2023-03-06T16:24:35.065Z,2.60
2023-03-06T16:27:36.983Z,2.50
2023-03-06T16:30:38.882Z,2.50
2023-03-06T16:33:41.568Z,2.60
2023-03-06T16:36:43.341Z,2.60
2023-03-06T16:39:45.003Z,2.60
2023-03-06T16:42:47.021Z,2.60
2023-03-06T16:45:48.808Z,2.60
2023-03-06T16:48:50.927Z,2.60
2023-03-06T16:51:53.764Z,2.70
2023-03-06T16:54:55.708Z,2.60
2023-03-06T16:57:57.505Z,2.60
2023-03-06T17:01:00.378Z,2.60
2023-03-06T17:04:02.597Z,2.50
2023-03-06T17:07:04.628Z,2.60
2023-03-06T17:10:09.458Z,2.50
2023-03-06T17:13:11.940Z,2.60
2023-03-06T17:16:16.361Z,2.50
2023-03-06T17:19:18.199Z,2.50
2023-03-06T17:22:20.449Z,2.50
2023-03-06T17:25:22.449Z,2.50
2023-03-06T17:28:24.110Z,2.50
2023-03-06T17:31:27.522Z,2.50
2023-03-06T17:34:30.001Z,2.50
2023-03-06T17:37:32.019Z,2.50
2023-03-06T17:40:33.906Z,2.50
2023-03-06T17:43:36.522Z,2.50
2023-03-06T17:46:52.592Z,2.50
2023-03-06T17:49:54.240Z,2.50
2023-03-06T17:52:55.881Z,2.60
2023-03-06T17:56:00.203Z,2.60
2023-03-06T17:59:01.920Z,2.50
2023-03-06T18:02:03.844Z,2.50
2023-03-06T18:05:06.167Z,2.50
2023-03-06T18:08:10.212Z,2.40
2023-03-06T18:11:12.854Z,2.40
2023-03-06T18:14:14.574Z,2.30
2023-03-06T18:17:16.404Z,2.20
2023-03-06T18:20:18.104Z,2.20
2023-03-06T18:23:19.849Z,2.20
2023-03-06T18:26:27.853Z,2.10
2023-03-06T18:29:29.660Z,2.10
2023-03-06T18:32:31.437Z,2.10
2023-03-06T18:35:33.992Z,2.10
2023-03-06T18:38:35.805Z,2.10
2023-03-06T18:41:37.869Z,2.10
2023-03-06T18:44:39.765Z,2.10
2023-03-06T18:47:41.480Z,2.00
2023-03-06T18:50:43.114Z,2.00
2023-03-06T18:53:45.014Z,2.00
2023-03-06T18:56:46.747Z,2.00
2023-03-06T18:59:48.412Z,2.00
2023-03-06T19:02:50.071Z,1.90
2023-03-06T19:05:51.996Z,1.90
2023-03-06T19:08:58.621Z,1.90
2023-03-06T19:12:03.143Z,1.80
2023-03-06T19:15:05.180Z,1.80
2023-03-06T19:18:06.866Z,1.80
2023-03-06T19:21:10.720Z,1.80
2023-03-06T19:24:15.253Z,1.80
2023-03-06T19:27:16.979Z,1.90
2023-03-06T19:30:18.970Z,1.80
2023-03-06T19:33:20.682Z,1.80
2023-03-06T19:36:26.677Z,1.80
2023-03-06T19:39:28.361Z,1.80
2023-03-06T19:42:31.051Z,1.80
2023-03-06T19:45:32.849Z,1.70
2023-03-06T19:48:34.641Z,1.70
2023-03-06T19:51:37.100Z,1.70
2023-03-06T19:54:39.158Z,1.70
2023-03-06T19:57:41.096Z,1.70
2023-03-06T20:00:42.886Z,1.60
2023-03-06T20:03:44.784Z,1.60
2023-03-06T20:06:50.230Z,1.60
2023-03-06T20:09:52.287Z,1.60
2023-03-06T20:12:54.060Z,1.60
2023-03-06T20:15:55.865Z,1.50
2023-03-06T20:19:00.144Z,1.50
2023-03-06T20:22:01.843Z,1.50
2023-03-06T20:25:03.780Z,1.40
2023-03-06T20:28:05.513Z,1.40
2023-03-06T20:31:13.711Z,1.40
2023-03-06T20:34:15.852Z,1.40
2023-03-06T20:37:17.558Z,1.40
2023-03-06T20:40:19.421Z,1.40
2023-03-06T20:43:21.233Z,1.50
2023-03-06T20:46:23.383Z,1.50
2023-03-06T20:49:27.151Z,1.60
2023-03-06T20:52:29.100Z,1.70
2023-03-06T20:55:30.795Z,1.60
2023-03-06T20:58:32.880Z,1.70
2023-03-06T21:01:40.245Z,1.70
2023-03-06T21:04:42.108Z,1.70
2023-03-06T21:07:43.841Z,1.70
2023-03-06T21:10:46.649Z,1.70
2023-03-06T21:13:49.336Z,1.60
2023-03-06T21:16:51.028Z,1.60
2023-03-06T21:19:52.798Z,1.60
2023-03-06T21:22:54.740Z,1.60
2023-03-06T21:25:56.408Z,1.50
2023-03-06T21:28:58.935Z,1.50
2023-03-06T21:32:01.743Z,1.60
2023-03-06T21:35:03.555Z,1.60
2023-03-06T21:38:05.542Z,1.60
2023-03-06T21:41:12.650Z,1.70
2023-03-06T21:44:14.433Z,1.80
2023-03-06T21:47:16.118Z,1.70
2023-03-06T21:50:18.084Z,1.70
2023-03-06T21:53:19.684Z,1.70
2023-03-06T21:56:23.274Z,1.70
2023-03-06T21:59:24.972Z,1.70
2023-03-06T22:02:26.749Z,1.60
2023-03-06T22:05:28.461Z,1.60
2023-03-06T22:08:30.111Z,1.60
2023-03-06T22:11:34.238Z,1.50
2023-03-06T22:14:36.258Z,1.50
2023-03-06T22:17:39.700Z,1.60
2023-03-06T22:20:42.425Z,1.60
2023-03-06T22:23:44.415Z,1.60
2023-03-06T22:26:46.160Z,1.50
2023-03-06T22:29:47.875Z,1.50
2023-03-06T22:32:51.946Z,1.60
2023-03-06T22:35:58.828Z,1.60
2023-03-06T22:39:02.220Z,1.70
2023-03-06T22:42:04.247Z,1.70
2023-03-06T22:45:06.386Z,1.70
2023-03-06T22:48:11.037Z,1.80
2023-03-06T22:51:18.677Z,1.70
2023-03-06T22:54:20.469Z,1.70
2023-03-06T22:57:22.284Z,1.70
2023-03-06T23:00:24.722Z,1.70
2023-03-06T23:03:26.414Z,1.70
2023-03-06T23:06:34.597Z,1.70
2023-03-06T23:09:36.270Z,1.80
2023-03-06T23:12:38.055Z,1.80
2023-03-06T23:15:39.755Z,1.80
2023-03-06T23:18:41.910Z,1.80
2023-03-06T23:21:43.586Z,1.80
2023-03-06T23:24:45.405Z,1.80
2023-03-06T23:27:47.147Z,1.80
2023-03-06T23:30:48.829Z,1.70
2023-03-06T23:33:50.732Z,1.70
2023-03-06T23:36:52.425Z,1.70
2023-03-06T23:39:54.139Z,1.70
2023-03-06T23:42:55.879Z,1.60
2023-03-06T23:45:58.148Z,1.60
2023-03-06T23:49:00.061Z,1.60
2023-03-06T23:52:01.923Z,1.60
2023-03-06T23:55:04.117Z,1.60
2023-03-06T23:58:05.809Z,1.60
